Aviation Digital Data Service (ADDS)

Output produced by METARs form (0252 UTC 21 January 2018)
found at http://www.aviationweather.gov/adds/metars/
 
KLBE 210245Z 22005KT 10SM SKC 02/M02 3011
KLBE 210145Z 21004KT 10SM SKC 00/M02 A3010
KLBE 210045Z 21003KT 10SM SKC 03/M01 A3009
KLBE 202345Z 22006KT 10SM SKC 03/M01 A3009
KLBE 202245Z 23005KT 10SM SCT150 05/M01 A3007
KLBE 202145Z 25007KT 10SM BKN200 08/M01 A3004
KLBE 201948Z 24010G20KT 20SM SCT250 08/M01 A3000
KLBE 201847Z 23015G25KT 20SM SCT250 08/M01 A3000
KLBE 201747Z 24015G25KT 20SM SCT250 07/M02 A3002
KLBE 201647Z 24020G30KT 20SM SKC 05/M02 A3004
KLBE 201545Z 24020G30KT 10SM SKC 05/M02 A3006
KLBE 201447Z 24018G28KT 10SM SKC 04/M02 A3005
KLBE 201350Z 24020G30KT 10SM SKC 03/M03 A3004
KLBE 201259Z 23015G27KT 10SM SKC 02/M04 A3004
KLBE 201150Z 23015G25KT 10SM SKC 02/M05 A3002
KLBE 201055Z AUTO 20015G21KT 10SM CLR 02/M06 A3001 RMK AO2
KLBE 201035Z AUTO 20016G20KT 10SM CLR 02/M07 A3001 RMK AO2
KLBE 201015Z AUTO 21015G21KT 10SM CLR 02/M07 A3000 RMK AO2
KLBE 200955Z AUTO 20014G20KT 10SM CLR 02/M08 A2999 RMK AO2
KLBE 200935Z AUTO 20014G22KT 10SM CLR 02/M08 A2999 RMK AO2
KLBE 200915Z AUTO 20017KT 10SM CLR 02/M09 A2999 RMK AO2
KLBE 200855Z AUTO 20016KT 10SM CLR 02/M09 A2999 RMK AO2
KLBE 200835Z AUTO 20016G19KT 10SM CLR 02/M09 A2999 RMK AO2
KLBE 200815Z AUTO 20015G19KT 10SM CLR 02/M09 A3000 RMK AO2
KLBE 200755Z AUTO 21014G18KT 10SM CLR 02/M08 A3001 RMK AO2
KLBE 200735Z AUTO 21015G20KT 10SM CLR 02/M09 A3000 RMK AO2
KLBE 200715Z AUTO 20014G22KT 10SM CLR 02/M09 A2999 RMK AO2
KLBE 200655Z AUTO 20016G21KT 10SM CLR 02/M09 A2998 RMK AO2
KLBE 200635Z AUTO 21017G23KT 10SM CLR 02/M09 A2997 RMK AO2
KLBE 200615Z AUTO 21017G21KT 10SM CLR 02/M09 A2997 RMK AO2
KLBE 200555Z AUTO 20016KT 10SM CLR 02/M09 A2997 RMK AO2
KLBE 200535Z AUTO 20016G22KT 10SM CLR 02/M09 A2998 RMK AO2
KLBE 200515Z AUTO 20016G22KT 10SM CLR 02/M10 A2998 RMK AO2
KLBE 200455Z AUTO 20016G20KT 10SM CLR 02/M09 A2999 RMK AO2
KLBE 200435Z AUTO 21013KT 10SM CLR 02/M09 A3000 RMK AO2
KLBE 200415Z AUTO 20012KT 10SM CLR 01/M09 A3000 RMK AO2
KLBE 200355Z AUTO 21012KT 10SM CLR 00/M08 A3002 RMK AO2
KLBE 200335Z AUTO 21011KT 10SM CLR 00/M08 A3002 RMK AO2
KLBE 200315Z AUTO 21010G16KT 10SM CLR 01/M08 A3001 RMK AO2